createdAt,value
2019-03-23T00:02:14.910Z,46.58
2019-03-23T00:04:43.294Z,46.58
2019-03-23T00:07:11.703Z,46.56
2019-03-23T00:09:40.084Z,46.69
2019-03-23T00:12:08.492Z,46.57
2019-03-23T00:14:36.888Z,46.58
2019-03-23T00:17:05.289Z,46.61
2019-03-23T00:19:33.675Z,46.58
2019-03-23T00:22:02.079Z,46.69
2019-03-23T00:24:30.469Z,46.70
2019-03-23T00:26:58.880Z,46.74
2019-03-23T00:29:27.279Z,46.62
2019-03-23T00:31:55.766Z,46.68
2019-03-23T00:34:24.179Z,46.67
2019-03-23T00:36:52.605Z,46.72
2019-03-23T00:39:21.009Z,46.66
2019-03-23T00:41:49.388Z,46.70
2019-03-23T00:44:17.782Z,46.61
2019-03-23T00:46:46.170Z,46.56
2019-03-23T00:49:14.563Z,46.69
2019-03-23T00:51:42.938Z,46.63
2019-03-23T00:54:11.332Z,46.62
2019-03-23T00:56:39.725Z,46.58
2019-03-23T00:59:08.105Z,46.65
2019-03-23T01:01:36.509Z,46.60
2019-03-23T01:04:05.046Z,46.64
2019-03-23T01:06:33.442Z,46.62
2019-03-23T01:09:01.842Z,46.61
2019-03-23T01:11:30.291Z,46.66
2019-03-23T01:13:59.158Z,46.70
2019-03-23T01:16:27.534Z,46.64
2019-03-23T01:18:55.938Z,46.71
2019-03-23T01:21:24.321Z,46.75
2019-03-23T01:23:52.724Z,46.79
2019-03-23T01:26:21.113Z,46.81
2019-03-23T01:28:49.509Z,46.84
2019-03-23T01:31:17.902Z,46.76
2019-03-23T01:33:46.304Z,46.79
2019-03-23T01:36:14.688Z,46.77
2019-03-23T01:38:43.086Z,46.89
2019-03-23T01:41:11.481Z,46.82
2019-03-23T01:43:39.870Z,46.92
2019-03-23T01:46:08.266Z,46.86
2019-03-23T01:48:36.673Z,46.85
2019-03-23T01:51:05.073Z,46.86
2019-03-23T01:53:33.482Z,46.93
2019-03-23T01:56:01.879Z,46.90
2019-03-23T01:58:30.273Z,46.90
2019-03-23T02:00:59.811Z,46.95
2019-03-23T02:03:28.210Z,46.96
2019-03-23T02:05:56.614Z,46.90
2019-03-23T02:11:42.419Z,46.93
2019-03-23T02:14:10.797Z,47.04
2019-03-23T02:16:39.167Z,47.03
2019-03-23T02:19:07.545Z,47.01
2019-03-23T02:21:35.935Z,47.03
2019-03-23T02:24:04.435Z,47.03
2019-03-23T02:26:32.816Z,47.04
2019-03-23T02:29:01.224Z,47.04
2019-03-23T02:31:29.807Z,47.10
2019-03-23T02:33:58.206Z,47.08
2019-03-23T02:36:26.582Z,47.07
2019-03-23T02:38:54.986Z,47.10
2019-03-23T02:41:23.359Z,47.06
2019-03-23T02:43:51.730Z,47.09
2019-03-23T02:46:20.115Z,47.12
2019-03-23T02:48:48.485Z,47.14
2019-03-23T02:51:16.888Z,47.20
2019-03-23T02:53:45.262Z,47.14
2019-03-23T02:56:13.638Z,47.15
2019-03-23T02:58:42.025Z,47.15
2019-03-23T03:01:10.403Z,47.12
2019-03-23T03:03:38.801Z,47.19
2019-03-23T03:06:07.182Z,47.23
2019-03-23T03:08:35.570Z,47.26
2019-03-23T03:11:03.953Z,47.26
2019-03-23T03:13:32.333Z,47.18
2019-03-23T03:16:00.701Z,47.21
2019-03-23T03:18:29.071Z,47.32
2019-03-23T03:20:57.469Z,47.24
2019-03-23T03:23:25.816Z,47.34
2019-03-23T03:25:54.195Z,47.32
2019-03-23T03:28:22.589Z,47.35
2019-03-23T03:30:50.966Z,47.32
2019-03-23T03:33:19.341Z,47.34
2019-03-23T03:35:47.721Z,47.35
2019-03-23T03:38:16.108Z,47.41
2019-03-23T03:40:44.491Z,47.40
2019-03-23T03:43:12.867Z,47.48
2019-03-23T03:45:41.262Z,47.41
2019-03-23T03:48:09.662Z,47.46
2019-03-23T03:50:38.076Z,47.46
2019-03-23T03:53:06.437Z,47.48
2019-03-23T03:55:34.806Z,47.52
2019-03-23T03:58:03.221Z,47.53
2019-03-23T04:00:31.597Z,47.54
2019-03-23T04:03:00.605Z,47.60
2019-03-23T04:05:28.998Z,47.56
2019-03-23T04:08:10.580Z,47.56
2019-03-23T04:10:27.509Z,47.63
2019-03-23T04:12:55.889Z,47.60
2019-03-23T04:15:24.287Z,47.64
2019-03-23T04:17:52.672Z,47.63
2019-03-23T04:20:21.045Z,47.62
2019-03-23T04:22:49.434Z,47.65
2019-03-23T04:25:17.808Z,47.58
2019-03-23T04:27:46.186Z,47.60
2019-03-23T04:30:17.094Z,47.69
2019-03-23T04:32:44.736Z,47.66
2019-03-23T04:35:13.264Z,47.71
2019-03-23T04:37:41.640Z,47.69
2019-03-23T04:40:11.486Z,47.66
2019-03-23T04:42:39.863Z,47.73
2019-03-23T04:45:10.059Z,47.77
2019-03-23T04:47:38.464Z,47.73
2019-03-23T04:50:11.518Z,47.71
2019-03-23T04:52:39.924Z,47.81
2019-03-23T04:55:12.529Z,47.81
2019-03-23T04:57:41.144Z,47.78
2019-03-23T05:00:12.577Z,47.84
2019-03-23T05:02:41.214Z,47.84
2019-03-23T05:05:11.048Z,47.86
2019-03-23T05:07:39.670Z,47.90
2019-03-23T05:10:09.242Z,47.87
2019-03-23T05:12:37.612Z,47.94
2019-03-23T05:15:09.413Z,47.94
2019-03-23T05:17:37.800Z,47.88
2019-03-23T05:20:07.626Z,47.91
2019-03-23T05:22:35.992Z,47.97
2019-03-23T05:25:05.410Z,48.01
2019-03-23T05:27:33.782Z,48.05
2019-03-23T05:30:02.186Z,47.99
2019-03-23T05:32:31.370Z,48.05
2019-03-23T05:34:59.773Z,48.01
2019-03-23T05:37:28.145Z,48.13
2019-03-23T05:39:56.518Z,48.21
2019-03-23T05:42:24.910Z,48.51
2019-03-23T05:44:53.289Z,48.63
2019-03-23T05:47:21.658Z,48.69
2019-03-23T05:49:50.067Z,48.74
2019-03-23T05:52:18.403Z,48.85
2019-03-23T05:54:46.789Z,48.91
2019-03-23T05:57:15.163Z,48.83
2019-03-23T05:59:43.547Z,49.11
2019-03-23T06:02:11.923Z,49.06
2019-03-23T06:04:40.315Z,49.23
2019-03-23T06:07:08.707Z,49.14
2019-03-23T06:09:37.110Z,49.12
2019-03-23T06:12:05.508Z,49.13
2019-03-23T06:14:33.887Z,49.23
2019-03-23T06:17:02.260Z,49.29
2019-03-23T06:19:30.671Z,49.25
2019-03-23T06:21:59.062Z,49.25
2019-03-23T06:24:27.437Z,49.19
2019-03-23T06:26:55.819Z,49.39
2019-03-23T06:29:24.214Z,49.63
2019-03-23T06:31:52.616Z,49.84
2019-03-23T06:34:20.991Z,50.16
2019-03-23T06:36:49.377Z,50.07
2019-03-23T06:39:17.753Z,50.12
2019-03-23T06:41:46.238Z,50.18
2019-03-23T06:44:14.618Z,50.08
2019-03-23T06:46:43.035Z,49.99
2019-03-23T06:49:11.434Z,50.07
2019-03-23T06:51:39.843Z,50.12
2019-03-23T06:54:08.217Z,50.23
2019-03-23T06:56:36.606Z,50.15
2019-03-23T06:59:04.986Z,49.97
2019-03-23T07:01:33.375Z,49.97
2019-03-23T07:04:02.093Z,49.88
2019-03-23T07:06:30.483Z,49.68
2019-03-23T07:08:58.862Z,49.32
2019-03-23T07:11:27.262Z,48.84
2019-03-23T07:13:55.651Z,48.48
2019-03-23T07:16:24.963Z,48.43
2019-03-23T07:18:53.320Z,48.45
2019-03-23T07:21:21.707Z,48.43
2019-03-23T07:23:50.102Z,48.53
2019-03-23T07:26:18.514Z,48.44
2019-03-23T07:28:46.902Z,48.54
2019-03-23T07:31:15.299Z,48.49
2019-03-23T07:33:43.679Z,48.44
2019-03-23T07:36:12.074Z,48.49
2019-03-23T07:38:40.460Z,48.49
2019-03-23T07:41:08.843Z,48.53
2019-03-23T07:43:37.230Z,48.51
2019-03-23T07:46:05.626Z,48.66
2019-03-23T07:48:34.018Z,48.63
2019-03-23T07:51:02.548Z,48.61
2019-03-23T07:53:30.937Z,48.61
2019-03-23T07:55:59.312Z,48.54
2019-03-23T07:58:27.724Z,48.58
2019-03-23T08:00:56.089Z,48.82
2019-03-23T08:03:24.502Z,48.58
2019-03-23T08:05:52.882Z,49.12
2019-03-23T08:08:21.264Z,49.10
2019-03-23T08:10:49.649Z,49.46
2019-03-23T08:13:18.098Z,48.82
2019-03-23T08:15:46.570Z,48.39
2019-03-23T08:18:14.956Z,48.13
2019-03-23T08:20:43.335Z,47.91
2019-03-23T08:23:11.730Z,47.85
2019-03-23T08:25:40.104Z,47.88
2019-03-23T08:28:08.505Z,47.86
2019-03-23T08:30:36.893Z,47.89
2019-03-23T08:33:05.371Z,48.11
2019-03-23T08:35:33.781Z,48.51
2019-03-23T08:38:02.971Z,48.86
2019-03-23T08:40:31.556Z,48.51
2019-03-23T08:42:59.971Z,48.68
2019-03-23T08:45:28.341Z,48.95
2019-03-23T08:47:56.727Z,48.94
2019-03-23T08:50:25.138Z,48.93
2019-03-23T08:52:53.487Z,48.86
2019-03-23T08:55:22.108Z,49.17
2019-03-23T08:57:50.497Z,49.18
2019-03-23T09:00:18.886Z,49.09
2019-03-23T09:02:47.265Z,49.29
2019-03-23T09:05:15.647Z,49.53
2019-03-23T09:07:44.054Z,49.78
2019-03-23T09:10:12.579Z,49.78
2019-03-23T09:12:40.986Z,49.83
2019-03-23T09:15:10.435Z,50.30
2019-03-23T09:17:38.811Z,50.46
2019-03-23T09:20:09.840Z,50.26
2019-03-23T09:22:38.243Z,50.19
2019-03-23T09:25:07.368Z,50.17
2019-03-23T09:27:35.741Z,50.09
2019-03-23T09:30:09.432Z,49.99
2019-03-23T09:32:37.809Z,49.95
2019-03-23T09:35:06.435Z,49.90
2019-03-23T09:37:38.059Z,49.91
2019-03-23T09:40:10.720Z,49.90
2019-03-23T09:42:35.747Z,49.87
2019-03-23T09:45:06.677Z,49.97
2019-03-23T09:47:35.052Z,49.90
2019-03-23T09:50:04.771Z,49.80
2019-03-23T09:52:33.525Z,49.67
2019-03-23T09:55:01.912Z,49.43
2019-03-23T09:57:30.299Z,49.02
2019-03-23T09:59:58.711Z,48.83
2019-03-23T10:02:27.147Z,48.79
2019-03-23T10:04:55.538Z,48.78
2019-03-23T10:07:23.907Z,48.91
2019-03-23T10:09:52.302Z,48.99
2019-03-23T10:12:20.679Z,49.08
2019-03-23T10:14:49.053Z,49.11
2019-03-23T10:17:17.443Z,49.18
2019-03-23T10:19:45.851Z,49.17
2019-03-23T10:22:14.235Z,49.13
2019-03-23T10:24:42.655Z,49.14
2019-03-23T10:27:11.061Z,49.24
2019-03-23T10:29:39.440Z,49.30
2019-03-23T10:32:07.851Z,49.27
2019-03-23T10:34:36.228Z,49.13
2019-03-23T10:37:04.687Z,49.20
2019-03-23T10:39:33.777Z,49.22
2019-03-23T10:42:02.163Z,49.19
2019-03-23T10:44:30.557Z,49.16
2019-03-23T10:46:58.944Z,49.10
2019-03-23T10:49:27.324Z,49.06
2019-03-23T10:51:55.707Z,49.04
2019-03-23T10:54:24.084Z,49.06
2019-03-23T10:56:52.506Z,49.15
2019-03-23T10:59:20.887Z,48.99
2019-03-23T11:01:49.281Z,49.02
2019-03-23T11:04:17.682Z,49.07
2019-03-23T11:06:46.069Z,49.18
2019-03-23T11:09:14.448Z,49.16
2019-03-23T11:11:42.850Z,49.14
2019-03-23T11:14:11.226Z,49.00
2019-03-23T11:16:39.612Z,48.98
2019-03-23T11:19:13.313Z,48.83
2019-03-23T11:21:38.136Z,48.75
2019-03-23T11:24:06.538Z,48.64
2019-03-23T11:26:34.922Z,48.59
2019-03-23T11:29:04.173Z,48.49
2019-03-23T11:31:32.558Z,48.44
2019-03-23T11:34:00.934Z,48.38
2019-03-23T11:36:29.320Z,48.31
2019-03-23T11:38:57.698Z,48.24
2019-03-23T11:41:26.076Z,48.15
2019-03-23T11:43:54.473Z,48.06
2019-03-23T11:46:22.853Z,47.99
2019-03-23T11:48:51.256Z,48.03
2019-03-23T11:51:19.716Z,48.17
2019-03-23T11:53:48.268Z,48.33
2019-03-23T11:56:16.646Z,48.48
2019-03-23T11:58:45.033Z,48.48
2019-03-23T12:01:13.403Z,48.55
2019-03-23T12:03:41.795Z,48.57
2019-03-23T12:06:10.266Z,48.60
2019-03-23T12:08:38.649Z,48.63
2019-03-23T12:11:07.019Z,48.63
2019-03-23T12:13:35.408Z,48.71
2019-03-23T12:16:04.594Z,48.75
2019-03-23T12:18:32.983Z,48.79
2019-03-23T12:21:01.386Z,48.66
2019-03-23T12:23:29.778Z,48.61
2019-03-23T12:25:58.207Z,48.49
2019-03-23T12:28:26.602Z,48.36
2019-03-23T12:30:55.008Z,48.17
2019-03-23T12:33:23.393Z,48.08
2019-03-23T12:35:51.792Z,48.05
2019-03-23T12:38:20.175Z,48.15
2019-03-23T12:40:48.557Z,48.02
2019-03-23T12:43:16.949Z,47.91
2019-03-23T12:45:45.394Z,47.90
2019-03-23T12:48:13.796Z,47.86
2019-03-23T12:50:42.174Z,47.74
2019-03-23T12:53:10.563Z,47.71
2019-03-23T12:55:38.942Z,47.73
2019-03-23T12:58:07.331Z,47.68
2019-03-23T13:00:35.708Z,47.67
2019-03-23T13:03:05.036Z,47.62
2019-03-23T13:05:33.434Z,47.56
2019-03-23T13:08:01.831Z,47.59
2019-03-23T13:10:30.214Z,47.52
2019-03-23T13:12:58.592Z,47.40
2019-03-23T13:15:26.977Z,47.15
2019-03-23T13:17:55.359Z,46.74
2019-03-23T13:20:23.802Z,46.50
2019-03-23T13:22:52.199Z,46.29
2019-03-23T13:25:20.589Z,46.24
2019-03-23T13:27:48.965Z,46.27
2019-03-23T13:30:17.992Z,46.34
2019-03-23T13:32:46.374Z,46.44
2019-03-23T13:35:14.828Z,46.47
2019-03-23T13:37:43.207Z,46.24
2019-03-23T13:40:12.452Z,46.01
2019-03-23T13:42:40.851Z,45.98
2019-03-23T13:45:10.066Z,46.11
2019-03-23T13:47:39.283Z,46.43
2019-03-23T13:50:08.946Z,46.49
2019-03-23T13:52:37.395Z,46.56
2019-03-23T13:55:07.248Z,46.66
2019-03-23T13:57:35.626Z,46.81
2019-03-23T14:00:06.657Z,46.85
2019-03-23T14:02:35.541Z,46.72
2019-03-23T14:05:04.669Z,46.71
2019-03-23T14:07:33.048Z,46.76
2019-03-23T14:10:01.467Z,46.71
2019-03-23T14:12:29.840Z,46.69
2019-03-23T14:14:58.222Z,46.49
2019-03-23T14:17:26.604Z,46.49
2019-03-23T14:19:55.001Z,46.55
2019-03-23T14:22:23.458Z,46.63
2019-03-23T14:24:51.836Z,46.86
2019-03-23T14:27:20.228Z,46.79
2019-03-23T14:29:48.606Z,46.76
2019-03-23T14:32:17.000Z,46.66
2019-03-23T14:34:45.370Z,46.51
2019-03-23T14:37:13.757Z,46.35
2019-03-23T14:39:42.130Z,46.22
2019-03-23T14:42:10.516Z,46.20
2019-03-23T14:44:38.891Z,46.17
2019-03-23T14:47:07.302Z,46.06
2019-03-23T14:49:35.908Z,46.18
2019-03-23T14:52:04.395Z,46.22
2019-03-23T14:54:32.772Z,46.32
2019-03-23T14:57:01.160Z,46.21
2019-03-23T14:59:29.559Z,46.14
2019-03-23T15:01:57.944Z,46.23
2019-03-23T15:04:26.321Z,46.21
2019-03-23T15:06:54.743Z,46.31
2019-03-23T15:09:23.115Z,46.25
2019-03-23T15:11:51.520Z,46.30
2019-03-23T15:14:19.911Z,46.31
2019-03-23T15:16:48.431Z,46.32
2019-03-23T15:19:16.839Z,46.26
2019-03-23T15:21:45.223Z,46.28
2019-03-23T15:24:13.669Z,46.28
2019-03-23T15:26:42.042Z,46.25
2019-03-23T15:29:10.423Z,46.32
2019-03-23T15:31:38.800Z,46.34
2019-03-23T15:34:07.208Z,46.39
2019-03-23T15:36:36.251Z,46.52
2019-03-23T15:39:07.264Z,46.28
2019-03-23T15:41:36.326Z,46.37
2019-03-23T15:44:04.713Z,46.17
2019-03-23T15:46:33.092Z,45.83
2019-03-23T15:49:01.482Z,45.87
2019-03-23T15:51:29.855Z,45.99
2019-03-23T15:53:58.243Z,46.08
2019-03-23T15:56:26.645Z,46.06
2019-03-23T15:58:55.063Z,45.96
2019-03-23T16:01:23.507Z,45.80
2019-03-23T16:03:52.055Z,45.88
2019-03-23T16:06:20.433Z,45.99
2019-03-23T16:08:48.819Z,46.10
2019-03-23T16:11:17.191Z,46.08
2019-03-23T16:13:45.575Z,46.06
2019-03-23T16:16:13.973Z,46.14
2019-03-23T16:18:42.430Z,46.18
2019-03-23T16:21:10.804Z,46.27
2019-03-23T16:23:39.306Z,46.34
2019-03-23T16:26:07.707Z,46.32
2019-03-23T16:28:36.839Z,46.46
2019-03-23T16:31:06.899Z,46.44
2019-03-23T16:33:35.288Z,46.67
2019-03-23T16:36:03.789Z,46.76
2019-03-23T16:38:32.205Z,46.78
2019-03-23T16:41:00.580Z,46.75
2019-03-23T16:43:28.967Z,46.87
2019-03-23T16:45:57.349Z,46.63
2019-03-23T16:48:25.734Z,46.74
2019-03-23T16:50:54.111Z,46.87
2019-03-23T16:53:22.510Z,46.80
2019-03-23T16:55:50.987Z,46.81
2019-03-23T16:58:19.409Z,46.83
2019-03-23T17:00:47.849Z,46.75
2019-03-23T17:03:16.276Z,46.67
2019-03-23T17:05:44.682Z,46.63
2019-03-23T17:08:13.059Z,46.56
2019-03-23T17:10:41.466Z,46.53
2019-03-23T17:13:09.834Z,46.48
2019-03-23T17:15:38.219Z,46.51
2019-03-23T17:18:07.192Z,46.66
2019-03-23T17:20:35.583Z,46.62
2019-03-23T17:23:03.960Z,46.87
2019-03-23T17:25:32.363Z,46.85
2019-03-23T17:28:00.752Z,46.85
2019-03-23T17:30:29.164Z,46.82
2019-03-23T17:32:57.535Z,46.96
2019-03-23T17:35:25.924Z,46.98
2019-03-23T17:37:55.306Z,46.99
2019-03-23T17:40:23.753Z,47.09
2019-03-23T17:42:52.134Z,47.08
2019-03-23T17:45:20.620Z,47.20
2019-03-23T17:47:49.019Z,47.17
2019-03-23T17:50:17.409Z,47.23
2019-03-23T17:52:46.017Z,47.27
2019-03-23T17:55:14.472Z,47.42
2019-03-23T17:57:42.876Z,47.61
2019-03-23T18:00:12.292Z,47.67
2019-03-23T18:02:40.651Z,47.77
2019-03-23T18:05:12.243Z,47.76
2019-03-23T18:07:40.744Z,47.72
2019-03-23T18:10:09.861Z,47.72
2019-03-23T18:12:38.263Z,47.80
2019-03-23T18:15:08.932Z,47.78
2019-03-23T18:17:37.737Z,47.73
2019-03-23T18:20:06.851Z,47.73
2019-03-23T18:22:35.311Z,47.74
2019-03-23T18:25:04.624Z,47.73
2019-03-23T18:27:33.036Z,47.77
2019-03-23T18:30:01.441Z,47.77
2019-03-23T18:32:29.826Z,47.76
2019-03-23T18:34:58.264Z,47.73
2019-03-23T18:37:26.672Z,47.70
2019-03-23T18:39:55.046Z,47.77
2019-03-23T18:42:23.430Z,47.84
2019-03-23T18:44:51.833Z,47.84
2019-03-23T18:47:20.216Z,47.80
2019-03-23T18:49:48.592Z,47.69
2019-03-23T18:52:16.975Z,47.68
2019-03-23T18:54:45.353Z,47.61
2019-03-23T18:57:13.744Z,47.66
2019-03-23T18:59:42.145Z,47.81
2019-03-23T19:02:10.532Z,47.91
2019-03-23T19:04:38.908Z,47.93
2019-03-23T19:07:08.136Z,47.91
2019-03-23T19:09:36.520Z,47.96
2019-03-23T19:12:04.992Z,49.62
2019-03-23T19:14:33.373Z,52.32
2019-03-23T19:17:01.782Z,52.81
2019-03-23T19:19:30.182Z,54.63
2019-03-23T19:21:58.577Z,56.29
2019-03-23T19:24:26.980Z,57.63
2019-03-23T19:26:55.360Z,57.96
2019-03-23T19:29:23.746Z,57.78
2019-03-23T19:31:52.127Z,59.20
2019-03-23T19:34:20.516Z,60.73
2019-03-23T19:36:48.914Z,61.41
2019-03-23T19:39:17.371Z,61.59
2019-03-23T19:41:45.739Z,61.60
2019-03-23T19:44:14.130Z,61.96
2019-03-23T19:46:42.515Z,61.46
2019-03-23T19:49:10.903Z,61.94
2019-03-23T19:51:39.302Z,62.16
2019-03-23T19:54:08.407Z,61.59
2019-03-23T19:56:36.783Z,61.33
2019-03-23T19:59:05.434Z,60.78
2019-03-23T20:01:33.822Z,59.45
2019-03-23T20:04:02.209Z,59.28
2019-03-23T20:06:30.602Z,58.88
2019-03-23T20:08:58.997Z,58.76
2019-03-23T20:11:27.513Z,58.47
2019-03-23T20:13:59.027Z,58.33
2019-03-23T20:16:26.114Z,58.15
2019-03-23T20:18:54.515Z,58.13
2019-03-23T20:21:22.911Z,58.20
2019-03-23T20:23:51.411Z,57.98
2019-03-23T20:26:20.343Z,57.95
2019-03-23T20:28:48.777Z,57.66
2019-03-23T20:31:17.307Z,57.55
2019-03-23T20:33:45.827Z,57.62
2019-03-23T20:36:14.210Z,57.39
2019-03-23T20:38:42.747Z,57.44
2019-03-23T20:41:11.124Z,57.36
2019-03-23T20:43:39.560Z,57.18
2019-03-23T20:46:09.148Z,57.00
2019-03-23T20:48:38.525Z,56.90
2019-03-23T20:51:06.915Z,56.66
2019-03-23T20:53:35.387Z,56.54
2019-03-23T20:56:03.774Z,56.40
2019-03-23T20:58:32.211Z,55.75
2019-03-23T21:01:00.572Z,55.55
2019-03-23T21:03:28.960Z,55.35
2019-03-23T21:05:57.353Z,55.08
2019-03-23T21:08:25.733Z,54.95
2019-03-23T21:10:54.158Z,55.00
2019-03-23T21:13:22.634Z,54.84
2019-03-23T21:15:51.039Z,54.75
2019-03-23T21:18:19.421Z,54.69
2019-03-23T21:20:47.978Z,54.57
2019-03-23T21:23:16.355Z,54.36
2019-03-23T21:25:44.818Z,54.34
2019-03-23T21:28:13.200Z,54.37
2019-03-23T21:30:41.623Z,54.25
2019-03-23T21:33:10.017Z,54.15
2019-03-23T21:35:39.251Z,54.10
2019-03-23T21:38:07.659Z,54.14
2019-03-23T21:40:36.044Z,54.01
2019-03-23T21:43:04.492Z,54.03
2019-03-23T21:45:32.879Z,53.91
2019-03-23T21:48:01.262Z,53.93
2019-03-23T21:50:29.795Z,53.94
2019-03-23T21:52:58.166Z,53.89
2019-03-23T21:55:26.546Z,53.88
2019-03-23T21:57:54.944Z,53.82
2019-03-23T22:00:31.441Z,53.77
2019-03-23T22:03:00.104Z,53.79
2019-03-23T22:05:28.466Z,53.81
2019-03-23T22:07:56.924Z,53.67
2019-03-23T22:10:25.316Z,53.73
2019-03-23T22:12:53.721Z,53.71
2019-03-23T22:15:22.106Z,53.64
2019-03-23T22:17:50.504Z,54.00
2019-03-23T22:20:18.964Z,54.16
2019-03-23T22:22:47.441Z,54.20
2019-03-23T22:25:15.814Z,54.28
2019-03-23T22:27:44.320Z,54.34
2019-03-23T22:30:16.140Z,54.33
2019-03-23T22:32:44.534Z,54.28
2019-03-23T22:35:13.051Z,54.20
2019-03-23T22:37:41.445Z,54.21
2019-03-23T22:40:12.932Z,54.19
2019-03-23T22:42:41.328Z,54.19
2019-03-23T22:45:10.029Z,54.19
2019-03-23T22:47:38.420Z,54.18
2019-03-23T22:50:07.425Z,54.16
2019-03-23T22:52:35.809Z,54.23
2019-03-23T22:55:05.645Z,54.15
2019-03-23T22:57:34.112Z,54.09
2019-03-23T23:00:02.505Z,54.22
2019-03-23T23:02:30.896Z,54.14
2019-03-23T23:04:59.299Z,54.01
2019-03-23T23:07:27.689Z,54.06
2019-03-23T23:09:56.069Z,54.01
2019-03-23T23:12:24.536Z,54.08
2019-03-23T23:15:03.799Z,53.94
2019-03-23T23:17:23.001Z,54.03
2019-03-23T23:19:51.456Z,53.99
2019-03-23T23:22:19.831Z,53.86
2019-03-23T23:24:48.217Z,53.78
2019-03-23T23:27:16.618Z,53.85
2019-03-23T23:29:45.013Z,53.73
2019-03-23T23:32:13.485Z,53.76
2019-03-23T23:34:41.879Z,53.67
2019-03-23T23:37:10.284Z,53.74
2019-03-23T23:39:38.674Z,53.68
2019-03-23T23:42:07.163Z,53.62
2019-03-23T23:44:37.008Z,53.70
2019-03-23T23:47:05.427Z,53.57
2019-03-23T23:49:33.841Z,53.70
2019-03-23T23:52:02.243Z,53.69
2019-03-23T23:54:30.635Z,53.60
2019-03-23T23:56:59.024Z,53.42
2019-03-23T23:59:27.841Z,53.48
